createdAt,value
2019-01-12T00:01:21.221Z,5.43
2019-01-12T00:04:27.947Z,6.70
2019-01-12T00:07:31.934Z,7.47
2019-01-12T00:10:35.865Z,5.53
2019-01-12T00:13:39.728Z,5.40
2019-01-12T00:16:43.871Z,6.47
2019-01-12T00:19:50.185Z,5.67
2019-01-12T00:22:54.139Z,6.70
2019-01-12T00:25:58.038Z,5.17
2019-01-12T00:29:01.905Z,5.00
2019-01-12T00:32:05.896Z,6.10
2019-01-12T00:35:10.014Z,5.23
2019-01-12T00:38:13.939Z,4.83
2019-01-12T00:41:17.944Z,4.87
2019-01-12T00:44:21.805Z,5.10
2019-01-12T00:47:25.863Z,4.80
2019-01-12T00:50:29.789Z,4.43
2019-01-12T00:53:33.664Z,5.80
2019-01-12T00:56:37.534Z,4.50
2019-01-12T00:59:41.461Z,5.43
2019-01-12T01:02:45.451Z,4.97
2019-01-12T01:05:53.023Z,5.50
2019-01-12T01:08:56.948Z,4.63
2019-01-12T01:12:00.873Z,5.73
2019-01-12T01:15:05.990Z,5.13
2019-01-12T01:18:09.922Z,5.83
2019-01-12T01:21:13.929Z,4.10
2019-01-12T01:24:17.868Z,5.00
2019-01-12T01:27:21.810Z,4.87
2019-01-12T01:30:25.662Z,4.87
2019-01-12T01:33:32.564Z,5.67
2019-01-12T01:36:36.436Z,4.23
2019-01-12T01:39:43.321Z,4.80
2019-01-12T01:42:47.441Z,5.60
2019-01-12T01:45:51.450Z,4.97
2019-01-12T01:48:55.438Z,4.10
2019-01-12T01:51:59.921Z,4.40
2019-01-12T01:55:04.431Z,4.60
2019-01-12T01:58:08.625Z,3.90
2019-01-12T02:01:12.492Z,3.83
2019-01-12T02:04:16.503Z,3.53
2019-01-12T02:07:20.498Z,3.43
2019-01-12T02:10:24.694Z,3.90
2019-01-12T02:13:29.224Z,4.17
2019-01-12T02:16:33.256Z,2.73
2019-01-12T02:19:37.185Z,3.93
2019-01-12T02:22:41.412Z,2.30
2019-01-12T02:25:45.343Z,4.77
2019-01-12T02:28:49.192Z,1.73
2019-01-12T02:31:53.143Z,3.30
2019-01-12T02:34:57.003Z,2.80
2019-01-12T02:38:00.866Z,2.73
2019-01-12T02:41:04.848Z,3.47
2019-01-12T02:44:08.840Z,3.13
2019-01-12T02:47:14.853Z,3.27
2019-01-12T02:50:18.990Z,3.23
2019-01-12T02:53:22.860Z,3.20
2019-01-12T02:56:26.826Z,3.47
2019-01-12T02:59:30.820Z,3.67
2019-01-12T03:02:34.758Z,3.07
2019-01-12T03:05:38.762Z,3.20
2019-01-12T03:08:42.748Z,3.67
2019-01-12T03:11:46.745Z,3.37
2019-01-12T03:14:51.767Z,3.67
2019-01-12T03:17:55.611Z,2.73
2019-01-12T03:20:59.577Z,3.57
2019-01-12T03:24:03.608Z,3.40
2019-01-12T03:27:07.518Z,3.27
2019-01-12T03:30:18.984Z,2.93
2019-01-12T03:33:22.853Z,3.73
2019-01-12T03:36:26.777Z,3.17
2019-01-12T03:39:30.630Z,3.63
2019-01-12T03:42:34.504Z,3.13
2019-01-12T03:45:38.427Z,5.43
2019-01-12T03:48:42.440Z,3.73
2019-01-12T03:51:46.377Z,3.97
2019-01-12T03:54:50.310Z,4.50
2019-01-12T03:57:54.180Z,3.70
2019-01-12T04:00:58.092Z,3.23
2019-01-12T04:04:02.007Z,3.20
2019-01-12T04:07:06.000Z,3.03
2019-01-12T04:10:10.337Z,3.57
2019-01-12T04:13:14.295Z,2.57
2019-01-12T04:16:18.395Z,2.73
2019-01-12T04:19:22.320Z,1.77
2019-01-12T04:22:26.171Z,1.97
2019-01-12T04:25:33.919Z,1.63
2019-01-12T04:28:39.053Z,1.40
2019-01-12T04:31:42.989Z,1.63
2019-01-12T04:34:46.824Z,1.70
2019-01-12T04:37:50.770Z,1.17
2019-01-12T04:40:58.301Z,1.43
2019-01-12T04:44:02.149Z,1.83
2019-01-12T04:47:06.091Z,2.00
2019-01-12T04:50:12.364Z,1.90
2019-01-12T04:53:17.486Z,1.17
2019-01-12T04:56:21.341Z,1.93
2019-01-12T04:59:25.256Z,1.27
2019-01-12T05:02:29.187Z,1.70
2019-01-12T05:05:33.111Z,1.50
2019-01-12T05:08:36.957Z,1.60
2019-01-12T05:11:40.804Z,1.13
2019-01-12T05:14:44.773Z,1.47
2019-01-12T05:17:50.723Z,2.03
2019-01-12T05:20:54.659Z,2.17
2019-01-12T05:23:58.638Z,1.57
2019-01-12T05:27:02.576Z,1.40
2019-01-12T05:30:07.524Z,1.30
2019-01-12T05:33:11.452Z,1.90
2019-01-12T05:36:15.388Z,1.63
2019-01-12T05:39:19.228Z,1.63
2019-01-12T05:42:23.090Z,1.20
2019-01-12T05:45:26.940Z,1.47
2019-01-12T05:48:30.880Z,1.03
2019-01-12T05:51:34.811Z,1.10
2019-01-12T05:54:41.172Z,1.17
2019-01-12T05:57:45.189Z,1.17
2019-01-12T06:00:49.052Z,1.20
2019-01-12T06:03:53.050Z,1.50
2019-01-12T06:06:56.902Z,1.37
2019-01-12T06:10:00.749Z,1.73
2019-01-12T06:13:04.746Z,1.63
2019-01-12T06:16:08.660Z,1.53
2019-01-12T06:19:12.578Z,1.90
2019-01-12T06:22:16.594Z,1.57
2019-01-12T06:25:20.438Z,1.83
2019-01-12T06:28:24.286Z,1.67
2019-01-12T06:31:28.128Z,2.13
2019-01-12T06:34:32.062Z,1.50
2019-01-12T06:37:38.342Z,1.33
2019-01-12T06:40:42.268Z,0.97
2019-01-12T06:43:46.125Z,0.90
2019-01-12T06:46:50.062Z,1.37
2019-01-12T06:49:53.990Z,0.80
2019-01-12T06:52:57.889Z,0.83
2019-01-12T06:56:01.820Z,0.80
2019-01-12T06:59:05.830Z,0.90
2019-01-12T07:02:10.067Z,0.67
2019-01-12T07:05:14.255Z,0.93
2019-01-12T07:08:18.115Z,0.80
2019-01-12T07:11:22.007Z,0.70
2019-01-12T07:14:26.037Z,0.87
2019-01-12T07:17:29.925Z,0.83
2019-01-12T07:20:34.151Z,1.47
2019-01-12T07:23:38.189Z,0.80
2019-01-12T07:26:42.207Z,0.60
2019-01-12T07:29:46.057Z,0.70
2019-01-12T07:32:52.402Z,0.50
2019-01-12T07:35:59.568Z,0.90
2019-01-12T07:39:04.550Z,0.80
2019-01-12T07:42:08.533Z,0.87
2019-01-12T07:45:13.718Z,0.90
2019-01-12T07:48:17.597Z,1.20
2019-01-12T07:51:21.463Z,1.40
2019-01-12T07:54:25.327Z,1.67
2019-01-12T07:57:29.175Z,1.70
2019-01-12T08:00:33.463Z,1.60
2019-01-12T08:03:37.437Z,1.17
2019-01-12T08:06:41.309Z,2.10
2019-01-12T08:09:45.343Z,2.10
2019-01-12T08:12:50.354Z,1.60
2019-01-12T08:15:55.338Z,2.13
2019-01-12T08:19:00.936Z,1.43
2019-01-12T08:22:05.501Z,1.40
2019-01-12T08:25:09.553Z,0.93
2019-01-12T08:28:13.418Z,1.33
2019-01-12T08:31:17.427Z,1.33
2019-01-12T08:34:21.412Z,1.50
2019-01-12T08:37:25.285Z,1.77
2019-01-12T08:40:30.002Z,1.90
2019-01-12T08:43:33.867Z,1.43
2019-01-12T08:46:37.793Z,1.70
2019-01-12T08:49:41.702Z,1.57
2019-01-12T08:52:46.009Z,1.70
2019-01-12T08:55:49.860Z,1.70
2019-01-12T08:58:57.037Z,2.63
2019-01-12T09:02:00.973Z,3.10
2019-01-12T09:05:05.898Z,4.03
2019-01-12T09:08:09.936Z,2.93
2019-01-12T09:11:13.870Z,2.00
2019-01-12T09:14:20.122Z,2.30
2019-01-12T09:17:24.038Z,1.77
2019-01-12T09:20:28.056Z,2.10
2019-01-12T09:23:32.190Z,2.20
2019-01-12T09:26:36.030Z,2.03
2019-01-12T09:29:42.554Z,2.00
2019-01-12T09:32:46.768Z,2.00
2019-01-12T09:35:59.432Z,1.93
2019-01-12T09:39:05.640Z,2.13
2019-01-12T09:42:09.651Z,2.87
2019-01-12T09:45:13.953Z,2.80
2019-01-12T09:48:17.920Z,2.17
2019-01-12T09:51:21.855Z,2.87
2019-01-12T09:54:30.311Z,3.30
2019-01-12T09:57:34.229Z,3.13
2019-01-12T10:00:38.268Z,4.07
2019-01-12T10:03:42.209Z,3.80
2019-01-12T10:06:46.202Z,3.50
2019-01-12T10:09:50.271Z,4.37
2019-01-12T10:12:54.293Z,4.17
2019-01-12T10:15:58.206Z,5.63
2019-01-12T10:19:02.080Z,4.30
2019-01-12T10:22:06.548Z,2.90
2019-01-12T10:25:12.970Z,3.30
2019-01-12T10:28:16.949Z,3.10
2019-01-12T10:31:27.207Z,3.53
2019-01-12T10:34:31.370Z,4.23
2019-01-12T10:37:35.517Z,4.20
2019-01-12T10:40:39.528Z,3.27
2019-01-12T10:43:43.497Z,3.17
2019-01-12T10:46:47.369Z,3.73
2019-01-12T10:49:51.238Z,3.67
2019-01-12T10:52:55.170Z,4.77
2019-01-12T10:55:59.734Z,4.37
2019-01-12T10:59:03.676Z,3.93
2019-01-12T11:02:07.976Z,2.90
2019-01-12T11:05:12.559Z,3.00
2019-01-12T11:08:16.573Z,3.23
2019-01-12T11:11:20.780Z,3.80
2019-01-12T11:14:24.803Z,2.70
2019-01-12T11:17:28.947Z,3.20
2019-01-12T11:20:32.951Z,2.63
2019-01-12T11:23:37.643Z,2.90
2019-01-12T11:26:42.431Z,2.50
2019-01-12T11:29:46.906Z,2.07
2019-01-12T11:32:51.607Z,1.00
2019-01-12T11:35:56.247Z,0.90
2019-01-12T11:39:00.682Z,0.80
2019-01-12T11:42:05.258Z,0.90
2019-01-12T11:45:10.157Z,0.80
2019-01-12T11:48:14.614Z,0.50
2019-01-12T11:51:19.087Z,0.80
2019-01-12T11:54:22.917Z,1.00
2019-01-12T11:57:28.879Z,0.73
2019-01-12T12:00:32.882Z,0.90
2019-01-12T12:03:37.079Z,0.90
2019-01-12T12:06:41.000Z,0.70
2019-01-12T12:09:47.057Z,0.90
2019-01-12T12:12:51.275Z,0.93
2019-01-12T12:15:55.248Z,1.00
2019-01-12T12:18:59.167Z,0.80
2019-01-12T12:22:03.123Z,0.80
2019-01-12T12:25:07.207Z,1.07
2019-01-12T12:28:12.328Z,1.73
2019-01-12T12:31:16.188Z,1.10
2019-01-12T12:34:21.194Z,1.03
2019-01-12T12:37:25.138Z,1.00
2019-01-12T12:40:29.149Z,1.27
2019-01-12T12:43:33.033Z,2.20
2019-01-12T12:46:36.991Z,2.17
2019-01-12T12:49:40.998Z,2.00
2019-01-12T12:52:46.439Z,2.17
2019-01-12T12:55:50.372Z,2.07
2019-01-12T12:58:54.411Z,2.07
2019-01-12T13:01:58.274Z,2.63
2019-01-12T13:05:02.256Z,3.03
2019-01-12T13:08:06.385Z,2.17
2019-01-12T13:11:15.783Z,3.00
2019-01-12T13:14:22.841Z,2.57
2019-01-12T13:17:26.810Z,3.23
2019-01-12T13:20:30.809Z,2.13
2019-01-12T13:23:34.689Z,2.10
2019-01-12T13:26:38.638Z,1.77
2019-01-12T13:29:42.719Z,2.53
2019-01-12T13:32:46.785Z,2.50
2019-01-12T13:35:50.962Z,2.90
2019-01-12T13:38:54.988Z,2.27
2019-01-12T13:41:59.192Z,1.07
2019-01-12T13:45:03.361Z,3.40
2019-01-12T13:48:07.364Z,2.53
2019-01-12T13:51:11.338Z,2.87
2019-01-12T13:54:16.392Z,2.07
2019-01-12T13:57:20.325Z,2.60
2019-01-12T14:00:29.527Z,2.20
2019-01-12T14:03:33.538Z,2.70
2019-01-12T14:06:37.405Z,2.60
2019-01-12T14:09:41.359Z,2.37
2019-01-12T14:12:45.345Z,3.30
2019-01-12T14:15:49.223Z,2.23
2019-01-12T14:18:53.385Z,2.70
2019-01-12T14:22:01.904Z,2.63
2019-01-12T14:25:06.673Z,1.97
2019-01-12T14:28:10.704Z,2.93
2019-01-12T14:31:14.736Z,3.70
2019-01-12T14:34:18.694Z,2.20
2019-01-12T14:37:22.644Z,1.67
2019-01-12T14:40:27.844Z,2.40
2019-01-12T14:43:31.809Z,1.80
2019-01-12T14:46:38.913Z,1.67
2019-01-12T14:49:43.146Z,1.60
2019-01-12T14:52:49.048Z,1.93
2019-01-12T14:55:53.027Z,1.33
2019-01-12T14:58:57.259Z,1.50
2019-01-12T15:02:02.784Z,2.37
2019-01-12T15:05:08.344Z,1.77
2019-01-12T15:08:14.702Z,1.70
2019-01-12T15:11:18.649Z,1.70
2019-01-12T15:14:22.787Z,1.63
2019-01-12T15:17:26.748Z,1.77
2019-01-12T15:20:31.378Z,1.80
2019-01-12T15:23:35.538Z,2.57
2019-01-12T15:26:39.524Z,2.37
2019-01-12T15:29:43.570Z,2.07
2019-01-12T15:32:47.623Z,2.70
2019-01-12T15:35:51.640Z,2.20
2019-01-12T15:38:55.578Z,2.73
2019-01-12T15:41:59.646Z,2.83
2019-01-12T15:45:04.827Z,2.47
2019-01-12T15:48:09.044Z,2.07
2019-01-12T15:51:12.933Z,2.17
2019-01-12T15:54:16.949Z,2.63
2019-01-12T15:57:23.288Z,2.23
2019-01-12T16:00:29.207Z,2.83
2019-01-12T16:03:33.228Z,3.77
2019-01-12T16:06:37.183Z,1.63
2019-01-12T16:09:41.325Z,1.73
2019-01-12T16:12:45.368Z,2.37
2019-01-12T16:15:49.319Z,2.83
2019-01-12T16:18:53.462Z,1.90
2019-01-12T16:21:57.380Z,1.80
2019-01-12T16:25:01.267Z,1.50
2019-01-12T16:28:07.094Z,1.63
2019-01-12T16:31:11.125Z,1.03
2019-01-12T16:34:15.068Z,1.00
2019-01-12T16:37:20.832Z,1.03
2019-01-12T16:40:25.223Z,0.97
2019-01-12T16:43:29.092Z,1.13
2019-01-12T16:46:33.046Z,1.67
2019-01-12T16:49:37.008Z,1.73
2019-01-12T16:52:41.071Z,1.70
2019-01-12T16:55:48.452Z,1.40
2019-01-12T16:58:52.404Z,2.20
2019-01-12T17:01:56.336Z,1.50
2019-01-12T17:05:02.121Z,1.57
2019-01-12T17:08:06.177Z,2.30
2019-01-12T17:11:10.242Z,2.13
2019-01-12T17:14:14.257Z,1.37
2019-01-12T17:17:18.200Z,1.60
2019-01-12T17:20:24.630Z,1.43
2019-01-12T17:23:28.566Z,1.60
2019-01-12T17:26:32.463Z,1.80
2019-01-12T17:29:36.453Z,2.80
2019-01-12T17:32:40.469Z,2.90
2019-01-12T17:35:44.402Z,2.80
2019-01-12T17:38:48.276Z,2.43
2019-01-12T17:41:52.248Z,2.50
2019-01-12T17:44:56.175Z,2.60
2019-01-12T17:48:00.285Z,3.03
2019-01-12T17:51:04.359Z,2.67
2019-01-12T17:54:08.389Z,2.63
2019-01-12T17:57:12.329Z,3.10
2019-01-12T18:00:32.138Z,2.20
2019-01-12T18:03:36.182Z,2.57
2019-01-12T18:06:40.276Z,2.67
2019-01-12T18:09:44.160Z,2.50
2019-01-12T18:12:48.105Z,2.40
2019-01-12T18:15:52.030Z,2.80
2019-01-12T18:18:56.061Z,1.70
2019-01-12T18:22:00.156Z,1.50
2019-01-12T18:25:04.997Z,1.90
2019-01-12T18:28:09.012Z,2.37
2019-01-12T18:31:13.236Z,2.10
2019-01-12T18:34:17.177Z,1.97
2019-01-12T18:37:21.047Z,1.40
2019-01-12T18:40:25.007Z,1.63
2019-01-12T18:43:28.867Z,1.50
2019-01-12T18:46:32.823Z,1.13
2019-01-12T18:49:36.801Z,1.90
2019-01-12T18:52:40.849Z,2.17
2019-01-12T18:55:44.778Z,1.70
2019-01-12T18:58:48.714Z,2.03
2019-01-12T19:01:52.669Z,1.80
2019-01-12T19:04:56.793Z,1.53
2019-01-12T19:08:00.655Z,1.53
2019-01-12T19:11:04.697Z,1.93
2019-01-12T19:14:10.993Z,2.43
2019-01-12T19:17:14.934Z,2.30
2019-01-12T19:20:18.800Z,3.37
2019-01-12T19:23:22.742Z,3.77
2019-01-12T19:26:26.753Z,2.77
2019-01-12T19:29:30.694Z,3.30
2019-01-12T19:32:34.559Z,2.70
2019-01-12T19:35:38.576Z,2.57
2019-01-12T19:38:42.503Z,3.80
2019-01-12T19:41:46.531Z,3.17
2019-01-12T19:44:53.999Z,2.73
2019-01-12T19:47:58.004Z,2.83
2019-01-12T19:51:02.018Z,3.53
2019-01-12T19:54:06.039Z,2.40
2019-01-12T19:57:10.034Z,3.90
2019-01-12T20:00:16.503Z,2.80
2019-01-12T20:03:20.623Z,2.33
2019-01-12T20:06:24.623Z,2.27
2019-01-12T20:09:28.614Z,1.63
2019-01-12T20:12:32.580Z,2.27
2019-01-12T20:15:36.611Z,1.57
2019-01-12T20:18:40.544Z,2.20
2019-01-12T20:21:44.686Z,2.17
2019-01-12T20:24:48.949Z,2.07
2019-01-12T20:27:52.975Z,1.87
2019-01-12T20:31:25.915Z,1.97
2019-01-12T20:34:44.225Z,2.30
2019-01-12T20:38:20.328Z,2.27
2019-01-12T20:41:57.340Z,1.73
2019-01-12T20:45:37.191Z,1.97
2019-01-12T20:49:11.272Z,1.87
2019-01-12T20:52:49.728Z,2.17
2019-01-12T20:56:09.597Z,1.87
2019-01-12T20:59:42.807Z,1.73
2019-01-12T21:03:25.794Z,2.07
2019-01-12T21:06:50.761Z,2.93
2019-01-12T21:10:46.097Z,1.73
2019-01-12T21:14:25.077Z,1.77
2019-01-12T21:17:29.099Z,2.50
2019-01-12T21:20:33.287Z,2.63
2019-01-12T21:23:37.221Z,2.47
2019-01-12T21:26:41.227Z,1.97
2019-01-12T21:29:45.157Z,2.23
2019-01-12T21:32:49.018Z,2.23
2019-01-12T21:35:53.116Z,2.27
2019-01-12T21:38:57.064Z,2.30
2019-01-12T21:42:01.075Z,3.07
2019-01-12T21:45:07.269Z,3.17
2019-01-12T21:48:11.229Z,2.53
2019-01-12T21:51:15.267Z,3.07
2019-01-12T21:54:19.291Z,2.87
2019-01-12T21:57:23.694Z,2.87
2019-01-12T22:00:27.625Z,2.97
2019-01-12T22:03:31.573Z,3.20
2019-01-12T22:06:35.574Z,3.07
2019-01-12T22:09:39.504Z,4.73
2019-01-12T22:12:46.383Z,3.40
2019-01-12T22:15:50.419Z,2.77
2019-01-12T22:18:54.334Z,2.90
2019-01-12T22:21:58.259Z,3.17
2019-01-12T22:25:02.106Z,2.93
2019-01-12T22:28:06.244Z,3.17
2019-01-12T22:31:14.488Z,2.90
2019-01-12T22:34:21.285Z,3.40
2019-01-12T22:37:25.316Z,2.80
2019-01-12T22:40:29.391Z,2.30
2019-01-12T22:43:33.339Z,3.37
2019-01-12T22:46:37.304Z,2.90
2019-01-12T22:49:41.280Z,2.23
2019-01-12T22:52:45.975Z,3.13
2019-01-12T22:55:51.412Z,1.80
2019-01-12T22:58:55.227Z,3.07
2019-01-12T23:02:01.632Z,2.60
2019-01-12T23:05:06.243Z,1.90
2019-01-12T23:08:10.278Z,3.30
2019-01-12T23:11:14.279Z,3.60
2019-01-12T23:14:18.212Z,3.03
2019-01-12T23:17:22.076Z,2.70
2019-01-12T23:20:26.092Z,3.00
2019-01-12T23:23:30.007Z,2.63
2019-01-12T23:26:34.048Z,2.53
2019-01-12T23:29:38.040Z,4.00
2019-01-12T23:32:41.963Z,4.13
2019-01-12T23:35:45.993Z,2.80
2019-01-12T23:38:50.018Z,3.33
2019-01-12T23:41:55.894Z,3.30
2019-01-12T23:44:59.549Z,3.03
2019-01-12T23:48:03.758Z,3.33
2019-01-12T23:51:07.795Z,2.37
2019-01-12T23:54:11.824Z,3.53
2019-01-12T23:57:17.133Z,2.80
